sensor_id;sensor_type;location;lat;lon;timestamp;pressure;altitude;pressure_sealevel;temperature;humidity
77869;BME280;67231;59.144;37.934;2023-12-14T00:01:41;100928.91;;;-10.96;70.41
77869;BME280;67231;59.144;37.934;2023-12-14T00:04:08;100927.19;;;-10.99;70.55
77869;BME280;67231;59.144;37.934;2023-12-14T00:06:34;100924.59;;;-11.02;70.17
77869;BME280;67231;59.144;37.934;2023-12-14T00:09:01;100917.78;;;-11.00;70.18
77869;BME280;67231;59.144;37.934;2023-12-14T00:11:27;100920.34;;;-10.98;70.53
77869;BME280;67231;59.144;37.934;2023-12-14T00:13:54;100920.34;;;-10.96;70.67
77869;BME280;67231;59.144;37.934;2023-12-14T00:16:20;100918.69;;;-10.94;71.12
77869;BME280;67231;59.144;37.934;2023-12-14T00:18:46;100924.63;;;-10.95;70.27
77869;BME280;67231;59.144;37.934;2023-12-14T00:21:13;100913.53;;;-10.94;71.18
77869;BME280;67231;59.144;37.934;2023-12-14T00:23:39;100923.78;;;-10.94;71.03
77869;BME280;67231;59.144;37.934;2023-12-14T00:26:05;100914.38;;;-10.95;71.46
77869;BME280;67231;59.144;37.934;2023-12-14T00:28:32;100922.06;;;-10.95;70.79
77869;BME280;67231;59.144;37.934;2023-12-14T00:30:58;100925.47;;;-10.95;71.33
77869;BME280;67231;59.144;37.934;2023-12-14T00:33:24;100933.16;;;-10.96;71.24
77869;BME280;67231;59.144;37.934;2023-12-14T00:35:51;100922.06;;;-10.99;70.38
77869;BME280;67231;59.144;37.934;2023-12-14T00:38:17;100911.81;;;-10.95;70.80
77869;BME280;67231;59.144;37.934;2023-12-14T00:40:43;100918.66;;;-10.90;70.70
77869;BME280;67231;59.144;37.934;2023-12-14T00:43:10;100926.34;;;-10.91;70.77
77869;BME280;67231;59.144;37.934;2023-12-14T00:45:36;100928.06;;;-10.90;71.70
77869;BME280;67231;59.144;37.934;2023-12-14T00:48:03;100913.53;;;-10.90;71.03
77869;BME280;67231;59.144;37.934;2023-12-14T00:50:29;100933.19;;;-10.93;71.09
77869;BME280;67231;59.144;37.934;2023-12-14T00:52:55;100928.06;;;-10.93;71.18
77869;BME280;67231;59.144;37.934;2023-12-14T00:55:22;100939.16;;;-10.91;70.61
77869;BME280;67231;59.144;37.934;2023-12-14T00:57:48;100929.75;;;-10.97;71.12
77869;BME280;67231;59.144;37.934;2023-12-14T01:00:15;100949.41;;;-11.01;70.83
77869;BME280;67231;59.144;37.934;2023-12-14T01:02:41;100929.72;;;-11.05;71.44
77869;BME280;67231;59.144;37.934;2023-12-14T01:05:08;100929.72;;;-11.06;71.43
77869;BME280;67231;59.144;37.934;2023-12-14T01:07:34;100916.06;;;-11.05;71.95
77869;BME280;67231;59.144;37.934;2023-12-14T01:10:01;100928.03;;;-11.06;71.92
77869;BME280;67231;59.144;37.934;2023-12-14T01:12:31;100922.03;;;-11.06;71.41
77869;BME280;67231;59.144;37.934;2023-12-14T01:14:58;100930.56;;;-11.09;71.97
77869;BME280;67231;59.144;37.934;2023-12-14T01:17:24;100923.75;;;-11.07;71.74
77869;BME280;67231;59.144;37.934;2023-12-14T01:19:51;100934.84;;;-11.05;71.75
77869;BME280;67231;59.144;37.934;2023-12-14T01:22:17;100945.09;;;-11.03;71.16
77869;BME280;67231;59.144;37.934;2023-12-14T01:24:44;100928.88;;;-11.02;71.68
77869;BME280;67231;59.144;37.934;2023-12-14T01:27:10;100939.97;;;-11.02;71.65
77869;BME280;67231;59.144;37.934;2023-12-14T01:29:40;100943.41;;;-11.00;71.49
77869;BME280;67231;59.144;37.934;2023-12-14T01:32:06;100944.28;;;-10.99;71.54
77869;BME280;67231;59.144;37.934;2023-12-14T01:34:33;100953.66;;;-10.96;72.08
77869;BME280;67231;59.144;37.934;2023-12-14T01:36:59;100937.44;;;-10.97;71.30
77869;BME280;67231;59.144;37.934;2023-12-14T01:39:26;100940.84;;;-10.95;71.66
77869;BME280;67231;59.144;37.934;2023-12-14T01:41:52;100933.19;;;-10.93;70.73
77869;BME280;67231;59.144;37.934;2023-12-14T01:44:18;100934.88;;;-10.95;71.73
77869;BME280;67231;59.144;37.934;2023-12-14T01:46:45;100928.91;;;-10.96;70.58
77869;BME280;67231;59.144;37.934;2023-12-14T01:49:11;100935.72;;;-10.96;71.05
77869;BME280;67231;59.144;37.934;2023-12-14T01:51:37;100938.31;;;-10.93;71.25
77869;BME280;67231;59.144;37.934;2023-12-14T01:54:04;100937.44;;;-10.97;70.73
77869;BME280;67231;59.144;37.934;2023-12-14T01:56:30;100945.97;;;-10.98;70.68
77869;BME280;67231;59.144;37.934;2023-12-14T01:58:57;100938.28;;;-10.98;71.48
77869;BME280;67231;59.144;37.934;2023-12-14T02:01:33;100936.59;;;-10.97;70.76
77869;BME280;67231;59.144;37.934;2023-12-14T02:04:03;100953.69;;;-10.95;71.14
77869;BME280;67231;59.144;37.934;2023-12-14T02:06:32;100934.88;;;-10.99;71.41
77869;BME280;67231;59.144;37.934;2023-12-14T02:08:59;100929.75;;;-10.99;70.51
77869;BME280;67231;59.144;37.934;2023-12-14T02:11:25;100922.91;;;-10.96;71.33
77869;BME280;67231;59.144;37.934;2023-12-14T02:13:51;100940.00;;;-10.95;70.39
77869;BME280;67231;59.144;37.934;2023-12-14T02:16:18;100926.34;;;-10.96;70.50
77869;BME280;67231;59.144;37.934;2023-12-14T02:18:45;100934.88;;;-10.95;70.34
77869;BME280;67231;59.144;37.934;2023-12-14T02:21:31;100925.47;;;-10.96;70.97
77869;BME280;67231;59.144;37.934;2023-12-14T02:23:58;100924.63;;;-10.99;71.00
77869;BME280;67231;59.144;37.934;2023-12-14T02:26:24;100930.59;;;-10.96;71.10
77869;BME280;67231;59.144;37.934;2023-12-14T02:28:50;100913.53;;;-10.94;70.38
77869;BME280;67231;59.144;37.934;2023-12-14T02:31:18;100922.09;;;-10.89;70.54
77869;BME280;67231;59.144;37.934;2023-12-14T02:33:45;100937.47;;;-10.92;71.36
77869;BME280;67231;59.144;37.934;2023-12-14T02:36:11;100928.03;;;-11.00;70.85
77869;BME280;67231;59.144;37.934;2023-12-14T02:38:38;100935.72;;;-11.01;70.98
77869;BME280;67231;59.144;37.934;2023-12-14T02:41:04;100921.19;;;-11.02;70.17
77869;BME280;67231;59.144;37.934;2023-12-14T02:43:31;100926.31;;;-11.02;70.64
77869;BME280;67231;59.144;37.934;2023-12-14T02:45:57;100916.06;;;-11.07;70.36
77869;BME280;67231;59.144;37.934;2023-12-14T02:48:29;100919.44;;;-11.12;70.33
77869;BME280;67231;59.144;37.934;2023-12-14T02:50:55;100923.72;;;-11.11;71.18
77869;BME280;67231;59.144;37.934;2023-12-14T02:53:22;100943.38;;;-11.12;70.81
77869;BME280;67231;59.144;37.934;2023-12-14T02:55:48;100922.88;;;-11.13;70.33
77869;BME280;67231;59.144;37.934;2023-12-14T02:58:15;100931.38;;;-11.14;71.05
77869;BME280;67231;59.144;37.934;2023-12-14T03:00:41;100933.13;;;-11.13;70.99
77869;BME280;67231;59.144;37.934;2023-12-14T03:03:08;100922.88;;;-11.12;70.76
77869;BME280;67231;59.144;37.934;2023-12-14T03:05:34;100929.66;;;-11.14;71.26
77869;BME280;67231;59.144;37.934;2023-12-14T03:08:00;100939.91;;;-11.14;71.52
77869;BME280;67231;59.144;37.934;2023-12-14T03:10:27;100923.69;;;-11.19;71.81
77869;BME280;67231;59.144;37.934;2023-12-14T03:12:53;100924.53;;;-11.17;71.11
77869;BME280;67231;59.144;37.934;2023-12-14T03:15:19;100940.78;;;-11.17;70.68
77869;BME280;67231;59.144;37.934;2023-12-14T03:17:46;100935.66;;;-11.18;71.27
77869;BME280;67231;59.144;37.934;2023-12-14T03:20:12;100942.47;;;-11.17;70.68
77869;BME280;67231;59.144;37.934;2023-12-14T03:22:41;100925.41;;;-11.18;71.47
77869;BME280;67231;59.144;37.934;2023-12-14T03:25:09;100929.66;;;-11.17;71.10
77869;BME280;67231;59.144;37.934;2023-12-14T03:27:37;100937.38;;;-11.19;71.38
77869;BME280;67231;59.144;37.934;2023-12-14T03:30:03;100939.06;;;-11.16;70.36
77869;BME280;67231;59.144;37.934;2023-12-14T03:32:34;100934.81;;;-11.19;70.27
77869;BME280;67231;59.144;37.934;2023-12-14T03:35:01;100919.41;;;-11.23;70.22
77869;BME280;67231;59.144;37.934;2023-12-14T03:37:30;100925.38;;;-11.23;70.68
77869;BME280;67231;59.144;37.934;2023-12-14T03:39:57;100924.53;;;-11.22;70.42
77869;BME280;67231;59.144;37.934;2023-12-14T03:42:23;100944.16;;;-11.21;70.63
77869;BME280;67231;59.144;37.934;2023-12-14T03:44:49;100929.66;;;-11.20;71.21
77869;BME280;67231;59.144;37.934;2023-12-14T03:47:16;100927.97;;;-11.18;70.71
77869;BME280;67231;59.144;37.934;2023-12-14T03:49:42;100947.59;;;-11.17;70.04
77869;BME280;67231;59.144;37.934;2023-12-14T03:52:09;100927.13;;;-11.19;70.53
77869;BME280;67231;59.144;37.934;2023-12-14T03:54:36;100943.34;;;-11.15;70.62
77869;BME280;67231;59.144;37.934;2023-12-14T03:57:02;100938.22;;;-11.18;70.59
77869;BME280;67231;59.144;37.934;2023-12-14T03:59:28;100926.25;;;-11.19;70.13
77869;BME280;67231;59.144;37.934;2023-12-14T04:01:55;100933.09;;;-11.18;70.20
77869;BME280;67231;59.144;37.934;2023-12-14T04:04:21;100945.03;;;-11.14;70.50
77869;BME280;67231;59.144;37.934;2023-12-14T04:06:48;100929.66;;;-11.17;70.85
77869;BME280;67231;59.144;37.934;2023-12-14T04:09:15;100933.94;;;-11.19;71.21
77869;BME280;67231;59.144;37.934;2023-12-14T04:11:41;100927.13;;;-11.19;70.15
77869;BME280;67231;59.144;37.934;2023-12-14T04:14:08;100929.66;;;-11.17;70.84
77869;BME280;67231;59.144;37.934;2023-12-14T04:16:36;100932.22;;;-11.15;71.24
77869;BME280;67231;59.144;37.934;2023-12-14T04:19:02;100933.94;;;-11.18;71.40
77869;BME280;67231;59.144;37.934;2023-12-14T04:21:29;100939.91;;;-11.22;71.05
77869;BME280;67231;59.144;37.934;2023-12-14T04:23:56;100936.47;;;-11.22;71.00
77869;BME280;67231;59.144;37.934;2023-12-14T04:26:23;100930.50;;;-11.21;70.49
77869;BME280;67231;59.144;37.934;2023-12-14T04:28:50;100928.78;;;-11.21;70.28
77869;BME280;67231;59.144;37.934;2023-12-14T04:31:17;100930.50;;;-11.21;70.04
77869;BME280;67231;59.144;37.934;2023-12-14T04:33:43;100938.19;;;-11.21;70.45
77869;BME280;67231;59.144;37.934;2023-12-14T04:36:10;100935.66;;;-11.20;70.70
77869;BME280;67231;59.144;37.934;2023-12-14T04:38:36;100956.16;;;-11.17;71.01
77869;BME280;67231;59.144;37.934;2023-12-14T04:41:03;100933.06;;;-11.21;70.45
77869;BME280;67231;59.144;37.934;2023-12-14T04:43:30;100945.91;;;-11.18;70.81
77869;BME280;67231;59.144;37.934;2023-12-14T04:45:58;100942.47;;;-11.17;71.28
77869;BME280;67231;59.144;37.934;2023-12-14T04:48:25;100944.19;;;-11.16;71.45
77869;BME280;67231;59.144;37.934;2023-12-14T04:50:51;100938.22;;;-11.15;70.25
77869;BME280;67231;59.144;37.934;2023-12-14T04:53:18;100945.91;;;-11.13;71.12
77869;BME280;67231;59.144;37.934;2023-12-14T04:55:44;100945.03;;;-11.17;70.89
77869;BME280;67231;59.144;37.934;2023-12-14T04:58:11;100946.72;;;-11.19;70.99
77869;BME280;67231;59.144;37.934;2023-12-14T05:00:39;100951.84;;;-11.19;70.67
77869;BME280;67231;59.144;37.934;2023-12-14T05:03:06;100924.53;;;-11.20;70.90
77869;BME280;67231;59.144;37.934;2023-12-14T05:05:32;100949.31;;;-11.18;70.71
77869;BME280;67231;59.144;37.934;2023-12-14T05:07:59;100949.31;;;-11.16;70.64
77869;BME280;67231;59.144;37.934;2023-12-14T05:10:25;100942.50;;;-11.12;70.54
77869;BME280;67231;59.144;37.934;2023-12-14T05:12:52;100946.78;;;-11.10;70.63
77869;BME280;67231;59.144;37.934;2023-12-14T05:15:19;100950.22;;;-11.05;70.92
77869;BME280;67231;59.144;37.934;2023-12-14T05:17:46;100945.94;;;-11.03;70.69
77869;BME280;67231;59.144;37.934;2023-12-14T05:20:12;100967.31;;;-11.07;70.89
77869;BME280;67231;59.144;37.934;2023-12-14T05:22:39;100952.75;;;-11.11;69.92
77869;BME280;67231;59.144;37.934;2023-12-14T05:25:05;100955.31;;;-11.09;70.57
77869;BME280;67231;59.144;37.934;2023-12-14T05:27:32;100970.69;;;-11.08;70.72
77869;BME280;67231;59.144;37.934;2023-12-14T05:29:58;100949.34;;;-11.10;70.02
77869;BME280;67231;59.144;37.934;2023-12-14T05:32:25;100958.75;;;-11.09;70.60
77869;BME280;67231;59.144;37.934;2023-12-14T05:34:51;100953.63;;;-11.03;70.39
77869;BME280;67231;59.144;37.934;2023-12-14T05:37:18;100961.34;;;-11.00;70.72
77869;BME280;67231;59.144;37.934;2023-12-14T05:39:44;100962.22;;;-11.01;70.68
77869;BME280;67231;59.144;37.934;2023-12-14T05:42:11;100969.03;;;-11.01;69.83
77869;BME280;67231;59.144;37.934;2023-12-14T05:44:38;100962.22;;;-11.01;70.08
77869;BME280;67231;59.144;37.934;2023-12-14T05:47:05;100957.94;;;-11.02;70.21
77869;BME280;67231;59.144;37.934;2023-12-14T05:49:31;100963.03;;;-11.06;70.36
77869;BME280;67231;59.144;37.934;2023-12-14T05:51:59;100953.66;;;-11.06;70.57
77869;BME280;67231;59.144;37.934;2023-12-14T05:54:26;100968.16;;;-11.06;69.84
77869;BME280;67231;59.144;37.934;2023-12-14T05:56:52;100962.19;;;-11.07;69.82
77869;BME280;67231;59.144;37.934;2023-12-14T05:59:19;100963.88;;;-11.03;69.34
77869;BME280;67231;59.144;37.934;2023-12-14T06:01:46;100968.16;;;-11.02;69.55
77869;BME280;67231;59.144;37.934;2023-12-14T06:04:12;100960.47;;;-11.02;70.07
77869;BME280;67231;59.144;37.934;2023-12-14T06:06:39;100980.13;;;-11.02;69.91
77869;BME280;67231;59.144;37.934;2023-12-14T06:09:06;100970.75;;;-11.02;69.54
77869;BME280;67231;59.144;37.934;2023-12-14T06:11:35;100978.41;;;-11.03;69.41
77869;BME280;67231;59.144;37.934;2023-12-14T06:14:04;100973.28;;;-11.06;69.70
77869;BME280;67231;59.144;37.934;2023-12-14T06:16:31;100963.06;;;-11.02;69.59
77869;BME280;67231;59.144;37.934;2023-12-14T06:18:57;100979.25;;;-11.03;69.98
77869;BME280;67231;59.144;37.934;2023-12-14T06:21:24;100972.44;;;-11.04;69.97
77869;BME280;67231;59.144;37.934;2023-12-14T06:23:57;100973.25;;;-11.11;69.52
77869;BME280;67231;59.144;37.934;2023-12-14T06:26:26;100964.72;;;-11.11;69.95
77869;BME280;67231;59.144;37.934;2023-12-14T06:28:52;100966.47;;;-11.07;69.82
77869;BME280;67231;59.144;37.934;2023-12-14T06:31:19;100979.25;;;-11.03;69.48
77869;BME280;67231;59.144;37.934;2023-12-14T06:33:48;100972.44;;;-11.04;69.31
77869;BME280;67231;59.144;37.934;2023-12-14T06:36:17;100978.44;;;-11.00;68.78
77869;BME280;67231;59.144;37.934;2023-12-14T06:38:44;100970.75;;;-11.00;69.07
77869;BME280;67231;59.144;37.934;2023-12-14T06:41:23;100974.16;;;-11.00;69.59
77869;BME280;67231;59.144;37.934;2023-12-14T06:43:50;100992.94;;;-11.05;69.35
77869;BME280;67231;59.144;37.934;2023-12-14T06:46:17;100980.13;;;-11.05;69.07
77869;BME280;67231;59.144;37.934;2023-12-14T06:48:45;100983.56;;;-11.02;68.84
77869;BME280;67231;59.144;37.934;2023-12-14T06:51:12;100995.53;;;-10.99;68.73
77869;BME280;67231;59.144;37.934;2023-12-14T06:53:41;100990.38;;;-11.04;69.27
77869;BME280;67231;59.144;37.934;2023-12-14T06:56:08;100984.41;;;-11.01;69.49
77869;BME280;67231;59.144;37.934;2023-12-14T06:58:42;100979.31;;;-10.95;69.21
77869;BME280;67231;59.144;37.934;2023-12-14T07:01:17;100999.84;;;-10.87;69.28
77869;BME280;67231;59.144;37.934;2023-12-14T07:03:46;100980.22;;;-10.84;69.37
77869;BME280;67231;59.144;37.934;2023-12-14T07:06:15;101002.44;;;-10.79;69.36
77869;BME280;67231;59.144;37.934;2023-12-14T07:08:42;100991.34;;;-10.82;68.38
77869;BME280;67231;59.144;37.934;2023-12-14T07:11:09;100969.13;;;-10.81;69.22
77869;BME280;67231;59.144;37.934;2023-12-14T07:13:35;100980.22;;;-10.81;69.67
77869;BME280;67231;59.144;37.934;2023-12-14T07:16:10;100977.69;;;-10.74;68.83
77869;BME280;67231;59.144;37.934;2023-12-14T07:18:37;100987.94;;;-10.73;69.23
77869;BME280;67231;59.144;37.934;2023-12-14T07:21:05;101002.50;;;-10.70;69.28
77869;BME280;67231;59.144;37.934;2023-12-14T07:23:32;100987.94;;;-10.76;69.21
77869;BME280;67231;59.144;37.934;2023-12-14T07:25:58;100996.47;;;-10.75;69.70
77869;BME280;67231;59.144;37.934;2023-12-14T07:28:26;100993.06;;;-10.74;69.05
77869;BME280;67231;59.144;37.934;2023-12-14T07:30:53;101003.34;;;-10.67;69.52
77869;BME280;67231;59.144;37.934;2023-12-14T07:33:19;101008.53;;;-10.57;69.01
77869;BME280;67231;59.144;37.934;2023-12-14T07:35:46;100999.94;;;-10.59;68.92
77869;BME280;67231;59.144;37.934;2023-12-14T07:38:13;100995.69;;;-10.65;69.04
77869;BME280;67231;59.144;37.934;2023-12-14T07:40:39;101005.94;;;-10.64;69.62
77869;BME280;67231;59.144;37.934;2023-12-14T07:43:07;101000.84;;;-10.54;69.29
77869;BME280;67231;59.144;37.934;2023-12-14T07:45:34;100985.44;;;-10.50;68.90
77869;BME280;67231;59.144;37.934;2023-12-14T07:48:01;101001.75;;;-10.43;68.58
77869;BME280;67231;59.144;37.934;2023-12-14T07:50:27;101006.00;;;-10.37;69.12
77869;BME280;67231;59.144;37.934;2023-12-14T07:52:54;101016.28;;;-10.36;68.87
77869;BME280;67231;59.144;37.934;2023-12-14T07:55:21;101031.69;;;-10.34;69.22
77869;BME280;67231;59.144;37.934;2023-12-14T07:57:47;101006.00;;;-10.39;68.21
77869;BME280;67231;59.144;37.934;2023-12-14T08:00:15;101023.97;;;-10.39;68.88
77869;BME280;67231;59.144;37.934;2023-12-14T08:02:42;101007.72;;;-10.44;68.62
77869;BME280;67231;59.144;37.934;2023-12-14T08:05:08;101020.53;;;-10.42;67.98
77869;BME280;67231;59.144;37.934;2023-12-14T08:07:35;101017.97;;;-10.44;68.17
77869;BME280;67231;59.144;37.934;2023-12-14T08:10:02;101027.38;;;-10.45;68.61
77869;BME280;67231;59.144;37.934;2023-12-14T08:12:32;101032.47;;;-10.52;68.13
77869;BME280;67231;59.144;37.934;2023-12-14T08:14:59;101013.66;;;-10.57;68.02
77869;BME280;67231;59.144;37.934;2023-12-14T08:17:25;101011.06;;;-10.62;68.24
77869;BME280;67231;59.144;37.934;2023-12-14T08:19:54;101028.16;;;-10.59;67.92
77869;BME280;67231;59.144;37.934;2023-12-14T08:22:20;101021.38;;;-10.54;68.30
77869;BME280;67231;59.144;37.934;2023-12-14T08:24:48;101027.34;;;-10.55;68.39
77869;BME280;67231;59.144;37.934;2023-12-14T08:27:15;101034.16;;;-10.60;68.14
77869;BME280;67231;59.144;37.934;2023-12-14T08:29:41;101017.91;;;-10.59;68.28
77869;BME280;67231;59.144;37.934;2023-12-14T08:32:08;101011.97;;;-10.51;68.27
77869;BME280;67231;59.144;37.934;2023-12-14T08:34:34;101017.94;;;-10.49;67.83
77869;BME280;67231;59.144;37.934;2023-12-14T08:37:01;101018.81;;;-10.45;68.54
77869;BME280;67231;59.144;37.934;2023-12-14T08:39:29;101010.28;;;-10.44;67.63
77869;BME280;67231;59.144;37.934;2023-12-14T08:41:55;101032.53;;;-10.41;68.28
77869;BME280;67231;59.144;37.934;2023-12-14T08:44:22;101017.97;;;-10.42;67.59
77869;BME280;67231;59.144;37.934;2023-12-14T08:46:48;101015.44;;;-10.38;67.86
77869;BME280;67231;59.144;37.934;2023-12-14T08:49:15;101018.84;;;-10.36;68.14
77869;BME280;67231;59.144;37.934;2023-12-14T08:51:42;101026.53;;;-10.39;67.73
77869;BME280;67231;59.144;37.934;2023-12-14T08:54:09;101025.69;;;-10.35;67.71
77869;BME280;67231;59.144;37.934;2023-12-14T08:56:36;101037.66;;;-10.34;67.46
77869;BME280;67231;59.144;37.934;2023-12-14T08:59:02;101017.13;;;-10.34;68.03
77869;BME280;67231;59.144;37.934;2023-12-14T09:01:30;101018.00;;;-10.33;67.28
77869;BME280;67231;59.144;37.934;2023-12-14T09:03:57;101027.38;;;-10.37;67.99
77869;BME280;67231;59.144;37.934;2023-12-14T09:06:23;101024.81;;;-10.34;68.33
77869;BME280;67231;59.144;37.934;2023-12-14T09:08:50;101034.22;;;-10.30;67.86
77869;BME280;67231;59.144;37.934;2023-12-14T09:11:17;101027.41;;;-10.40;67.90
77869;BME280;67231;59.144;37.934;2023-12-14T09:13:43;101026.53;;;-10.40;67.79
77869;BME280;67231;59.144;37.934;2023-12-14T09:16:10;101026.53;;;-10.36;68.50
77869;BME280;67231;59.144;37.934;2023-12-14T09:18:37;101028.25;;;-10.39;67.95
77869;BME280;67231;59.144;37.934;2023-12-14T09:21:03;101014.56;;;-10.40;67.90
77869;BME280;67231;59.144;37.934;2023-12-14T09:23:30;101037.66;;;-10.40;68.24
77869;BME280;67231;59.144;37.934;2023-12-14T09:25:57;101017.13;;;-10.43;67.80
77869;BME280;67231;59.144;37.934;2023-12-14T09:28:25;101022.28;;;-10.40;68.41
77869;BME280;67231;59.144;37.934;2023-12-14T09:30:52;101024.81;;;-10.37;67.71
77869;BME280;67231;59.144;37.934;2023-12-14T09:33:19;101028.28;;;-10.33;68.16
77869;BME280;67231;59.144;37.934;2023-12-14T09:35:46;101018.00;;;-10.35;67.78
77869;BME280;67231;59.144;37.934;2023-12-14T09:38:12;101029.13;;;-10.33;67.83
77869;BME280;67231;59.144;37.934;2023-12-14T09:40:43;101023.97;;;-10.34;67.95
77869;BME280;67231;59.144;37.934;2023-12-14T09:43:11;101027.41;;;-10.40;67.48
77869;BME280;67231;59.144;37.934;2023-12-14T09:45:40;101035.09;;;-10.41;68.47
77869;BME280;67231;59.144;37.934;2023-12-14T09:48:11;101023.94;;;-10.45;68.31
77869;BME280;67231;59.144;37.934;2023-12-14T09:50:39;101035.94;;;-10.44;68.34
77869;BME280;67231;59.144;37.934;2023-12-14T09:53:06;101016.22;;;-10.51;68.93
77869;BME280;67231;59.144;37.934;2023-12-14T09:55:34;101030.78;;;-10.47;68.83
77869;BME280;67231;59.144;37.934;2023-12-14T09:58:01;101017.13;;;-10.43;68.30
77869;BME280;67231;59.144;37.934;2023-12-14T10:00:37;101026.56;;;-10.33;67.88
77869;BME280;67231;59.144;37.934;2023-12-14T10:05:48;101036.84;;;-10.17;68.23
77869;BME280;67231;59.144;37.934;2023-12-14T10:08:16;101024.84;;;-10.17;67.48
77869;BME280;67231;59.144;37.934;2023-12-14T10:10:43;101026.59;;;-10.14;68.19
77869;BME280;67231;59.144;37.934;2023-12-14T10:13:10;101029.13;;;-10.22;68.17
77869;BME280;67231;59.144;37.934;2023-12-14T10:15:45;101020.53;;;-10.26;68.28
77869;BME280;67231;59.144;37.934;2023-12-14T10:18:12;101019.69;;;-10.32;68.45
77869;BME280;67231;59.144;37.934;2023-12-14T10:20:39;101009.44;;;-10.35;68.39
77869;BME280;67231;59.144;37.934;2023-12-14T10:23:07;101025.72;;;-10.33;68.70
77869;BME280;67231;59.144;37.934;2023-12-14T10:25:35;101037.66;;;-10.37;68.36
77869;BME280;67231;59.144;37.934;2023-12-14T10:28:02;101016.28;;;-10.39;69.00
77869;BME280;67231;59.144;37.934;2023-12-14T10:30:29;101017.13;;;-10.41;68.61
77869;BME280;67231;59.144;37.934;2023-12-14T10:32:57;101011.13;;;-10.44;69.21
77869;BME280;67231;59.144;37.934;2023-12-14T10:35:24;101011.13;;;-10.40;68.59
77869;BME280;67231;59.144;37.934;2023-12-14T10:37:51;101029.09;;;-10.37;68.93
77869;BME280;67231;59.144;37.934;2023-12-14T10:40:18;101019.69;;;-10.43;69.03
77869;BME280;67231;59.144;37.934;2023-12-14T10:42:47;101023.94;;;-10.44;69.45
77869;BME280;67231;59.144;37.934;2023-12-14T10:45:16;101041.06;;;-10.41;68.64
77869;BME280;67231;59.144;37.934;2023-12-14T10:47:46;101026.53;;;-10.40;69.00
77869;BME280;67231;59.144;37.934;2023-12-14T10:50:14;101009.44;;;-10.41;68.62
77869;BME280;67231;59.144;37.934;2023-12-14T10:52:41;101012.00;;;-10.43;69.16
77869;BME280;67231;59.144;37.934;2023-12-14T10:55:18;101011.13;;;-10.44;68.87
77869;BME280;67231;59.144;37.934;2023-12-14T10:57:47;101005.97;;;-10.48;68.89
77869;BME280;67231;59.144;37.934;2023-12-14T11:00:15;101008.53;;;-10.50;68.99
77869;BME280;67231;59.144;37.934;2023-12-14T11:02:46;100998.28;;;-10.45;68.95
77869;BME280;67231;59.144;37.934;2023-12-14T11:05:15;101006.88;;;-10.41;69.27
77869;BME280;67231;59.144;37.934;2023-12-14T11:07:54;101002.56;;;-10.46;69.39
77869;BME280;67231;59.144;37.934;2023-12-14T11:10:42;101006.84;;;-10.49;68.98
77869;BME280;67231;59.144;37.934;2023-12-14T11:13:13;101011.13;;;-10.44;69.50
77869;BME280;67231;59.144;37.934;2023-12-14T11:15:47;101012.84;;;-10.44;69.61
77869;BME280;67231;59.144;37.934;2023-12-14T11:18:24;101006.00;;;-10.44;69.46
77869;BME280;67231;59.144;37.934;2023-12-14T11:20:54;101008.53;;;-10.48;69.42
77869;BME280;67231;59.144;37.934;2023-12-14T11:25:51;101010.25;;;-10.52;69.37
77869;BME280;67231;59.144;37.934;2023-12-14T11:28:22;101013.69;;;-10.53;69.40
77869;BME280;67231;59.144;37.934;2023-12-14T11:30:49;101011.97;;;-10.49;70.11
77869;BME280;67231;59.144;37.934;2023-12-14T11:33:16;101019.69;;;-10.48;69.54
77869;BME280;67231;59.144;37.934;2023-12-14T11:35:43;101023.94;;;-10.45;70.29
77869;BME280;67231;59.144;37.934;2023-12-14T11:38:09;101023.09;;;-10.47;70.46
77869;BME280;67231;59.144;37.934;2023-12-14T11:40:40;101029.97;;;-10.43;69.53
77869;BME280;67231;59.144;37.934;2023-12-14T11:43:07;101027.38;;;-10.43;69.48
77869;BME280;67231;59.144;37.934;2023-12-14T11:45:35;101017.97;;;-10.44;69.34
77869;BME280;67231;59.144;37.934;2023-12-14T11:48:03;101026.53;;;-10.40;69.50
77869;BME280;67231;59.144;37.934;2023-12-14T11:50:32;101041.09;;;-10.38;70.04
77869;BME280;67231;59.144;37.934;2023-12-14T11:53:03;101048.78;;;-10.36;69.86
77869;BME280;67231;59.144;37.934;2023-12-14T11:55:31;101044.47;;;-10.42;69.77
77869;BME280;67231;59.144;37.934;2023-12-14T11:57:58;101039.34;;;-10.44;69.58
77869;BME280;67231;59.144;37.934;2023-12-14T12:00:27;101032.53;;;-10.43;69.72
77869;BME280;67231;59.144;37.934;2023-12-14T12:03:08;101050.47;;;-10.41;70.30
77869;BME280;67231;59.144;37.934;2023-12-14T12:05:39;101034.22;;;-10.42;69.93
77869;BME280;67231;59.144;37.934;2023-12-14T12:08:06;101028.22;;;-10.42;69.55
77869;BME280;67231;59.144;37.934;2023-12-14T12:10:33;101040.22;;;-10.43;69.88
77869;BME280;67231;59.144;37.934;2023-12-14T12:13:01;101042.78;;;-10.46;70.39
77869;BME280;67231;59.144;37.934;2023-12-14T12:15:28;101037.63;;;-10.46;70.14
77869;BME280;67231;59.144;37.934;2023-12-14T12:17:55;101030.81;;;-10.41;70.28
77869;BME280;67231;59.144;37.934;2023-12-14T12:20:21;101019.69;;;-10.35;69.84
77869;BME280;67231;59.144;37.934;2023-12-14T12:22:48;101029.94;;;-10.31;69.99
77869;BME280;67231;59.144;37.934;2023-12-14T12:25:14;101028.25;;;-10.35;69.99
77869;BME280;67231;59.144;37.934;2023-12-14T12:27:41;101026.53;;;-10.39;69.98
77869;BME280;67231;59.144;37.934;2023-12-14T12:30:08;101033.38;;;-10.39;70.64
77869;BME280;67231;59.144;37.934;2023-12-14T12:32:34;101035.94;;;-10.39;70.37
77869;BME280;67231;59.144;37.934;2023-12-14T12:35:01;101029.94;;;-10.45;69.97
77869;BME280;67231;59.144;37.934;2023-12-14T12:37:30;101041.91;;;-10.42;70.02